sensor_id;sensor_type;location;lat;lon;timestamp;P1;durP1;ratioP1;P2;durP2;ratioP2
77012;SDS011;67260;53.130;17.982;2023-11-22T00:02:25;13.30;;;5.90;;
77012;SDS011;67260;53.130;17.982;2023-11-22T00:12:24;11.90;;;5.40;;
77012;SDS011;67260;53.130;17.982;2023-11-22T00:15:07;12.50;;;5.70;;
77012;SDS011;67260;53.130;17.982;2023-11-22T00:18:26;13.90;;;6.30;;
77012;SDS011;67260;53.130;17.982;2023-11-22T00:20:53;14.90;;;6.20;;
77012;SDS011;67260;53.130;17.982;2023-11-22T00:23:24;16.90;;;6.90;;
77012;SDS011;67260;53.130;17.982;2023-11-22T00:25:55;15.60;;;6.20;;
77012;SDS011;67260;53.130;17.982;2023-11-22T00:28:25;15.20;;;6.50;;
77012;SDS011;67260;53.130;17.982;2023-11-22T00:30:52;14.50;;;6.10;;
77012;SDS011;67260;53.130;17.982;2023-11-22T00:33:20;14.30;;;5.60;;
77012;SDS011;67260;53.130;17.982;2023-11-22T00:36:04;12.50;;;5.60;;
77012;SDS011;67260;53.130;17.982;2023-11-22T00:38:30;13.20;;;5.80;;
77012;SDS011;67260;53.130;17.982;2023-11-22T00:40:59;12.90;;;5.40;;
77012;SDS011;67260;53.130;17.982;2023-11-22T00:43:33;12.00;;;5.60;;
77012;SDS011;67260;53.130;17.982;2023-11-22T00:46:00;12.80;;;5.50;;
77012;SDS011;67260;53.130;17.982;2023-11-22T00:48:28;14.30;;;5.80;;
77012;SDS011;67260;53.130;17.982;2023-11-22T00:50:54;17.00;;;6.00;;
77012;SDS011;67260;53.130;17.982;2023-11-22T00:53:38;16.70;;;6.60;;
77012;SDS011;67260;53.130;17.982;2023-11-22T00:56:05;15.70;;;6.40;;
77012;SDS011;67260;53.130;17.982;2023-11-22T00:58:33;13.10;;;6.10;;
77012;SDS011;67260;53.130;17.982;2023-11-22T01:01:00;15.30;;;6.60;;
77012;SDS011;67260;53.130;17.982;2023-11-22T01:03:27;15.90;;;6.00;;
77012;SDS011;67260;53.130;17.982;2023-11-22T01:05:53;15.70;;;6.70;;
77012;SDS011;67260;53.130;17.982;2023-11-22T01:08:20;15.80;;;6.70;;
77012;SDS011;67260;53.130;17.982;2023-11-22T01:15:10;15.50;;;6.30;;
77012;SDS011;67260;53.130;17.982;2023-11-22T01:17:36;16.70;;;6.30;;
77012;SDS011;67260;53.130;17.982;2023-11-22T01:22:30;15.30;;;6.10;;
77012;SDS011;67260;53.130;17.982;2023-11-22T01:25:02;14.10;;;6.40;;
77012;SDS011;67260;53.130;17.982;2023-11-22T01:27:28;14.90;;;6.50;;
77012;SDS011;67260;53.130;17.982;2023-11-22T01:29:55;13.70;;;5.90;;
77012;SDS011;67260;53.130;17.982;2023-11-22T01:32:24;16.30;;;6.60;;
77012;SDS011;67260;53.130;17.982;2023-11-22T01:35:05;21.20;;;7.40;;
77012;SDS011;67260;53.130;17.982;2023-11-22T01:37:32;14.00;;;5.80;;
77012;SDS011;67260;53.130;17.982;2023-11-22T01:42:37;15.40;;;6.30;;
77012;SDS011;67260;53.130;17.982;2023-11-22T01:45:07;15.70;;;6.60;;
77012;SDS011;67260;53.130;17.982;2023-11-22T01:50:42;16.20;;;6.70;;
77012;SDS011;67260;53.130;17.982;2023-11-22T01:53:10;14.00;;;5.60;;
77012;SDS011;67260;53.130;17.982;2023-11-22T01:55:48;13.70;;;5.90;;
77012;SDS011;67260;53.130;17.982;2023-11-22T01:58:15;15.70;;;6.60;;
77012;SDS011;67260;53.130;17.982;2023-11-22T02:00:49;19.20;;;7.10;;
77012;SDS011;67260;53.130;17.982;2023-11-22T02:03:16;15.90;;;7.10;;
77012;SDS011;67260;53.130;17.982;2023-11-22T02:05:46;15.00;;;6.10;;
77012;SDS011;67260;53.130;17.982;2023-11-22T02:08:13;15.20;;;6.60;;
77012;SDS011;67260;53.130;17.982;2023-11-22T02:13:51;16.10;;;6.50;;
77012;SDS011;67260;53.130;17.982;2023-11-22T02:16:18;16.50;;;6.90;;
77012;SDS011;67260;53.130;17.982;2023-11-22T02:21:19;19.30;;;6.20;;
77012;SDS011;67260;53.130;17.982;2023-11-22T02:23:54;17.20;;;7.10;;
77012;SDS011;67260;53.130;17.982;2023-11-22T02:26:21;15.00;;;6.40;;
77012;SDS011;67260;53.130;17.982;2023-11-22T02:28:48;16.90;;;7.60;;
77012;SDS011;67260;53.130;17.982;2023-11-22T02:31:15;18.50;;;6.90;;
77012;SDS011;67260;53.130;17.982;2023-11-22T02:33:41;17.50;;;7.60;;
77012;SDS011;67260;53.130;17.982;2023-11-22T02:36:08;18.30;;;6.40;;
77012;SDS011;67260;53.130;17.982;2023-11-22T02:38:38;14.40;;;6.70;;
77012;SDS011;67260;53.130;17.982;2023-11-22T02:41:05;16.20;;;6.80;;
77012;SDS011;67260;53.130;17.982;2023-11-22T02:43:32;16.70;;;7.00;;
77012;SDS011;67260;53.130;17.982;2023-11-22T02:45:59;15.00;;;7.00;;
77012;SDS011;67260;53.130;17.982;2023-11-22T02:48:25;19.00;;;7.80;;
77012;SDS011;67260;53.130;17.982;2023-11-22T02:50:52;17.90;;;7.40;;
77012;SDS011;67260;53.130;17.982;2023-11-22T02:53:20;23.80;;;8.30;;
77012;SDS011;67260;53.130;17.982;2023-11-22T02:55:47;21.80;;;7.80;;
77012;SDS011;67260;53.130;17.982;2023-11-22T02:58:20;24.80;;;7.90;;
77012;SDS011;67260;53.130;17.982;2023-11-22T03:00:47;25.30;;;8.30;;
77012;SDS011;67260;53.130;17.982;2023-11-22T03:03:13;33.70;;;9.60;;
77012;SDS011;67260;53.130;17.982;2023-11-22T03:05:40;31.50;;;8.50;;
77012;SDS011;67260;53.130;17.982;2023-11-22T03:14:24;20.70;;;7.30;;
77012;SDS011;67260;53.130;17.982;2023-11-22T03:16:51;19.50;;;7.30;;
77012;SDS011;67260;53.130;17.982;2023-11-22T03:19:18;24.50;;;9.80;;
77012;SDS011;67260;53.130;17.982;2023-11-22T03:21:46;25.90;;;10.90;;
77012;SDS011;67260;53.130;17.982;2023-11-22T03:24:13;23.10;;;9.80;;
77012;SDS011;67260;53.130;17.982;2023-11-22T03:26:42;28.60;;;10.40;;
77012;SDS011;67260;53.130;17.982;2023-11-22T03:29:09;27.70;;;10.50;;
77012;SDS011;67260;53.130;17.982;2023-11-22T03:31:38;24.90;;;10.30;;
77012;SDS011;67260;53.130;17.982;2023-11-22T03:34:09;26.70;;;12.10;;
77012;SDS011;67260;53.130;17.982;2023-11-22T03:36:39;26.80;;;10.40;;
77012;SDS011;67260;53.130;17.982;2023-11-22T03:55:03;20.50;;;9.20;;
77012;SDS011;67260;53.130;17.982;2023-11-22T03:59:56;21.80;;;9.20;;
77012;SDS011;67260;53.130;17.982;2023-11-22T04:02:24;22.50;;;9.80;;
77012;SDS011;67260;53.130;17.982;2023-11-22T04:05:07;27.50;;;10.90;;
77012;SDS011;67260;53.130;17.982;2023-11-22T04:07:34;23.10;;;9.70;;
77012;SDS011;67260;53.130;17.982;2023-11-22T04:10:01;20.10;;;9.10;;
77012;SDS011;67260;53.130;17.982;2023-11-22T04:15:43;20.40;;;9.00;;
77012;SDS011;67260;53.130;17.982;2023-11-22T04:18:10;17.00;;;7.60;;
77012;SDS011;67260;53.130;17.982;2023-11-22T04:21:56;21.10;;;7.90;;
77012;SDS011;67260;53.130;17.982;2023-11-22T04:34:53;18.50;;;8.20;;
77012;SDS011;67260;53.130;17.982;2023-11-22T04:37:19;22.00;;;9.50;;
77012;SDS011;67260;53.130;17.982;2023-11-22T04:39:52;22.20;;;9.50;;
77012;SDS011;67260;53.130;17.982;2023-11-22T04:42:22;21.80;;;9.10;;
77012;SDS011;67260;53.130;17.982;2023-11-22T04:44:54;23.80;;;9.80;;
77012;SDS011;67260;53.130;17.982;2023-11-22T04:47:22;24.00;;;10.80;;
77012;SDS011;67260;53.130;17.982;2023-11-22T04:49:50;26.30;;;9.50;;
77012;SDS011;67260;53.130;17.982;2023-11-22T04:55:18;21.70;;;9.70;;
77012;SDS011;67260;53.130;17.982;2023-11-22T04:58:13;27.40;;;10.20;;
77012;SDS011;67260;53.130;17.982;2023-11-22T05:00:47;26.20;;;11.10;;
77012;SDS011;67260;53.130;17.982;2023-11-22T05:03:28;29.50;;;11.30;;
77012;SDS011;67260;53.130;17.982;2023-11-22T05:05:58;32.70;;;13.20;;
77012;SDS011;67260;53.130;17.982;2023-11-22T05:08:30;31.70;;;13.40;;
77012;SDS011;67260;53.130;17.982;2023-11-22T05:11:06;37.00;;;13.20;;
77012;SDS011;67260;53.130;17.982;2023-11-22T05:13:34;30.50;;;13.60;;
77012;SDS011;67260;53.130;17.982;2023-11-22T05:16:03;34.00;;;14.30;;
77012;SDS011;67260;53.130;17.982;2023-11-22T05:18:40;33.10;;;14.50;;
77012;SDS011;67260;53.130;17.982;2023-11-22T05:21:07;37.00;;;15.00;;
77012;SDS011;67260;53.130;17.982;2023-11-22T05:23:41;32.30;;;13.40;;
77012;SDS011;67260;53.130;17.982;2023-11-22T05:26:10;31.20;;;13.20;;
77012;SDS011;67260;53.130;17.982;2023-11-22T05:28:41;28.40;;;12.30;;
77012;SDS011;67260;53.130;17.982;2023-11-22T05:31:12;29.90;;;11.90;;
77012;SDS011;67260;53.130;17.982;2023-11-22T05:33:41;32.30;;;12.80;;
77012;SDS011;67260;53.130;17.982;2023-11-22T05:52:37;30.30;;;12.00;;
77012;SDS011;67260;53.130;17.982;2023-11-22T06:03:42;23.70;;;11.30;;
77012;SDS011;67260;53.130;17.982;2023-11-22T06:06:10;29.30;;;12.30;;
77012;SDS011;67260;53.130;17.982;2023-11-22T06:08:39;28.80;;;12.90;;
77012;SDS011;67260;53.130;17.982;2023-11-22T06:11:10;27.70;;;11.00;;
77012;SDS011;67260;53.130;17.982;2023-11-22T06:13:54;27.00;;;11.60;;
77012;SDS011;67260;53.130;17.982;2023-11-22T06:16:21;28.70;;;12.50;;
77012;SDS011;67260;53.130;17.982;2023-11-22T06:18:53;29.50;;;12.60;;
77012;SDS011;67260;53.130;17.982;2023-11-22T06:21:22;28.50;;;12.40;;
77012;SDS011;67260;53.130;17.982;2023-11-22T06:23:51;25.10;;;12.40;;
77012;SDS011;67260;53.130;17.982;2023-11-22T06:26:22;28.20;;;12.50;;
77012;SDS011;67260;53.130;17.982;2023-11-22T06:28:49;28.50;;;14.10;;
77012;SDS011;67260;53.130;17.982;2023-11-22T06:31:16;35.60;;;14.20;;
77012;SDS011;67260;53.130;17.982;2023-11-22T06:33:43;34.80;;;14.30;;
77012;SDS011;67260;53.130;17.982;2023-11-22T06:36:10;31.80;;;13.60;;
77012;SDS011;67260;53.130;17.982;2023-11-22T06:38:39;35.80;;;14.30;;
77012;SDS011;67260;53.130;17.982;2023-11-22T06:41:10;34.90;;;13.90;;
77012;SDS011;67260;53.130;17.982;2023-11-22T06:43:39;29.90;;;14.60;;
77012;SDS011;67260;53.130;17.982;2023-11-22T06:46:12;29.80;;;13.80;;
77012;SDS011;67260;53.130;17.982;2023-11-22T06:48:39;34.40;;;14.40;;
77012;SDS011;67260;53.130;17.982;2023-11-22T06:51:06;36.90;;;16.00;;
77012;SDS011;67260;53.130;17.982;2023-11-22T06:53:33;37.20;;;15.80;;
77012;SDS011;67260;53.130;17.982;2023-11-22T06:56:00;38.50;;;17.40;;
77012;SDS011;67260;53.130;17.982;2023-11-22T06:58:27;37.00;;;16.10;;
77012;SDS011;67260;53.130;17.982;2023-11-22T07:00:54;39.80;;;16.30;;
77012;SDS011;67260;53.130;17.982;2023-11-22T07:05:48;42.90;;;16.60;;
77012;SDS011;67260;53.130;17.982;2023-11-22T07:08:15;37.60;;;17.80;;
77012;SDS011;67260;53.130;17.982;2023-11-22T07:10:43;44.10;;;18.00;;
77012;SDS011;67260;53.130;17.982;2023-11-22T07:13:11;43.00;;;18.90;;
77012;SDS011;67260;53.130;17.982;2023-11-22T07:15:39;46.20;;;19.80;;
77012;SDS011;67260;53.130;17.982;2023-11-22T07:18:07;43.30;;;18.70;;
77012;SDS011;67260;53.130;17.982;2023-11-22T07:20:36;49.90;;;22.10;;
77012;SDS011;67260;53.130;17.982;2023-11-22T07:23:20;47.50;;;20.30;;
77012;SDS011;67260;53.130;17.982;2023-11-22T07:25:51;51.20;;;22.00;;
77012;SDS011;67260;53.130;17.982;2023-11-22T07:28:42;52.10;;;23.00;;
77012;SDS011;67260;53.130;17.982;2023-11-22T07:31:09;50.30;;;23.70;;
77012;SDS011;67260;53.130;17.982;2023-11-22T07:33:40;57.30;;;24.10;;
77012;SDS011;67260;53.130;17.982;2023-11-22T07:36:08;53.40;;;23.80;;
77012;SDS011;67260;53.130;17.982;2023-11-22T07:38:36;54.60;;;25.10;;
77012;SDS011;67260;53.130;17.982;2023-11-22T07:43:30;59.80;;;29.40;;
77012;SDS011;67260;53.130;17.982;2023-11-22T07:46:05;54.90;;;30.00;;
77012;SDS011;67260;53.130;17.982;2023-11-22T07:49:03;57.20;;;30.20;;
77012;SDS011;67260;53.130;17.982;2023-11-22T07:51:30;60.80;;;33.20;;
77012;SDS011;67260;53.130;17.982;2023-11-22T07:53:57;58.50;;;32.00;;
77012;SDS011;67260;53.130;17.982;2023-11-22T07:56:23;55.30;;;32.50;;
77012;SDS011;67260;53.130;17.982;2023-11-22T07:58:51;67.90;;;37.40;;
77012;SDS011;67260;53.130;17.982;2023-11-22T08:01:18;51.70;;;33.20;;
77012;SDS011;67260;53.130;17.982;2023-11-22T08:03:45;56.30;;;35.70;;
77012;SDS011;67260;53.130;17.982;2023-11-22T08:06:12;52.10;;;34.10;;
77012;SDS011;67260;53.130;17.982;2023-11-22T08:08:39;56.10;;;36.40;;
77012;SDS011;67260;53.130;17.982;2023-11-22T08:11:11;52.70;;;33.20;;
77012;SDS011;67260;53.130;17.982;2023-11-22T08:13:44;49.60;;;34.30;;
77012;SDS011;67260;53.130;17.982;2023-11-22T08:19:21;45.60;;;30.30;;
77012;SDS011;67260;53.130;17.982;2023-11-22T08:21:50;40.70;;;29.00;;
77012;SDS011;67260;53.130;17.982;2023-11-22T08:24:17;37.30;;;28.30;;
77012;SDS011;67260;53.130;17.982;2023-11-22T08:26:45;40.50;;;27.20;;
77012;SDS011;67260;53.130;17.982;2023-11-22T08:29:14;32.70;;;22.40;;
77012;SDS011;67260;53.130;17.982;2023-11-22T08:31:41;30.00;;;20.90;;
77012;SDS011;67260;53.130;17.982;2023-11-22T08:34:07;28.00;;;19.40;;
77012;SDS011;67260;53.130;17.982;2023-11-22T08:36:35;30.70;;;22.30;;
77012;SDS011;67260;53.130;17.982;2023-11-22T08:39:03;32.40;;;21.80;;
77012;SDS011;67260;53.130;17.982;2023-11-22T08:41:31;31.90;;;21.40;;
77012;SDS011;67260;53.130;17.982;2023-11-22T08:43:59;30.40;;;21.70;;
77012;SDS011;67260;53.130;17.982;2023-11-22T08:46:27;28.60;;;21.70;;
77012;SDS011;67260;53.130;17.982;2023-11-22T08:48:54;27.70;;;20.70;;
77012;SDS011;67260;53.130;17.982;2023-11-22T08:51:22;28.40;;;21.20;;
77012;SDS011;67260;53.130;17.982;2023-11-22T08:53:49;28.50;;;20.50;;
77012;SDS011;67260;53.130;17.982;2023-11-22T08:56:16;26.40;;;20.80;;
77012;SDS011;67260;53.130;17.982;2023-11-22T08:58:44;30.60;;;23.50;;
77012;SDS011;67260;53.130;17.982;2023-11-22T09:01:11;32.60;;;25.30;;
77012;SDS011;67260;53.130;17.982;2023-11-22T09:03:40;37.00;;;25.80;;
77012;SDS011;67260;53.130;17.982;2023-11-22T09:06:08;41.10;;;29.20;;
77012;SDS011;67260;53.130;17.982;2023-11-22T09:08:34;26.50;;;18.20;;
77012;SDS011;67260;53.130;17.982;2023-11-22T09:11:02;62.70;;;48.30;;
77012;SDS011;67260;53.130;17.982;2023-11-22T09:13:34;21.80;;;17.60;;
77012;SDS011;67260;53.130;17.982;2023-11-22T09:16:02;21.60;;;16.50;;
77012;SDS011;67260;53.130;17.982;2023-11-22T09:18:36;24.90;;;17.80;;
77012;SDS011;67260;53.130;17.982;2023-11-22T09:21:06;16.20;;;11.80;;
77012;SDS011;67260;53.130;17.982;2023-11-22T09:23:36;20.90;;;15.90;;
77012;SDS011;67260;53.130;17.982;2023-11-22T09:33:43;27.30;;;20.90;;
77012;SDS011;67260;53.130;17.982;2023-11-22T09:39:36;91.30;;;69.40;;
77012;SDS011;67260;53.130;17.982;2023-11-22T09:42:12;57.30;;;41.60;;
77012;SDS011;67260;53.130;17.982;2023-11-22T09:48:21;34.70;;;25.70;;
77012;SDS011;67260;53.130;17.982;2023-11-22T09:54:09;20.70;;;12.70;;
77012;SDS011;67260;53.130;17.982;2023-11-22T09:56:54;18.70;;;12.00;;
77012;SDS011;67260;53.130;17.982;2023-11-22T09:59:26;18.40;;;11.30;;
77012;SDS011;67260;53.130;17.982;2023-11-22T10:02:21;19.30;;;11.40;;
77012;SDS011;67260;53.130;17.982;2023-11-22T10:04:55;16.60;;;9.20;;
77012;SDS011;67260;53.130;17.982;2023-11-22T10:07:25;16.20;;;9.00;;
77012;SDS011;67260;53.130;17.982;2023-11-22T10:10:14;17.70;;;10.70;;
77012;SDS011;67260;53.130;17.982;2023-11-22T10:12:44;26.90;;;15.40;;
77012;SDS011;67260;53.130;17.982;2023-11-22T10:15:17;22.00;;;12.30;;
77012;SDS011;67260;53.130;17.982;2023-11-22T10:18:03;25.30;;;12.40;;
77012;SDS011;67260;53.130;17.982;2023-11-22T10:20:41;27.20;;;14.80;;
77012;SDS011;67260;53.130;17.982;2023-11-22T10:23:12;25.60;;;14.20;;
77012;SDS011;67260;53.130;17.982;2023-11-22T10:25:46;25.00;;;12.70;;
77012;SDS011;67260;53.130;17.982;2023-11-22T10:28:26;25.80;;;12.20;;
77012;SDS011;67260;53.130;17.982;2023-11-22T10:31:12;25.10;;;11.90;;
77012;SDS011;67260;53.130;17.982;2023-11-22T10:34:06;26.00;;;12.90;;
77012;SDS011;67260;53.130;17.982;2023-11-22T10:36:39;24.50;;;11.90;;
77012;SDS011;67260;53.130;17.982;2023-11-22T10:39:10;21.20;;;11.00;;
77012;SDS011;67260;53.130;17.982;2023-11-22T10:41:42;24.70;;;13.20;;
77012;SDS011;67260;53.130;17.982;2023-11-22T10:44:26;29.70;;;13.00;;
77012;SDS011;67260;53.130;17.982;2023-11-22T10:46:59;23.10;;;11.40;;
77012;SDS011;67260;53.130;17.982;2023-11-22T10:49:29;30.90;;;13.20;;
77012;SDS011;67260;53.130;17.982;2023-11-22T10:51:56;25.50;;;11.90;;
77012;SDS011;67260;53.130;17.982;2023-11-22T10:54:37;26.10;;;12.70;;
77012;SDS011;67260;53.130;17.982;2023-11-22T10:57:39;35.50;;;13.90;;
77012;SDS011;67260;53.130;17.982;2023-11-22T11:00:26;40.00;;;14.30;;
77012;SDS011;67260;53.130;17.982;2023-11-22T11:05:59;25.60;;;11.60;;
77012;SDS011;67260;53.130;17.982;2023-11-22T11:08:31;25.10;;;12.00;;
77012;SDS011;67260;53.130;17.982;2023-11-22T11:11:28;23.00;;;10.90;;
77012;SDS011;67260;53.130;17.982;2023-11-22T11:13:59;20.20;;;11.00;;
77012;SDS011;67260;53.130;17.982;2023-11-22T11:16:40;27.00;;;12.90;;
77012;SDS011;67260;53.130;17.982;2023-11-22T11:19:13;22.90;;;10.30;;
77012;SDS011;67260;53.130;17.982;2023-11-22T11:21:54;20.20;;;9.90;;
77012;SDS011;67260;53.130;17.982;2023-11-22T11:24:26;21.80;;;10.10;;
77012;SDS011;67260;53.130;17.982;2023-11-22T11:28:02;18.50;;;9.30;;
77012;SDS011;67260;53.130;17.982;2023-11-22T11:33:01;17.60;;;9.00;;
77012;SDS011;67260;53.130;17.982;2023-11-22T11:38:37;31.60;;;15.90;;
77012;SDS011;67260;53.130;17.982;2023-11-22T11:44:33;19.10;;;10.20;;
77012;SDS011;67260;53.130;17.982;2023-11-22T11:47:10;19.10;;;9.30;;
77012;SDS011;67260;53.130;17.982;2023-11-22T11:49:51;48.30;;;17.60;;
77012;SDS011;67260;53.130;17.982;2023-11-22T11:52:26;130.00;;;40.10;;
77012;SDS011;67260;53.130;17.982;2023-11-22T11:54:55;53.20;;;19.10;;
77012;SDS011;67260;53.130;17.982;2023-11-22T11:57:38;35.00;;;14.00;;
77012;SDS011;67260;53.130;17.982;2023-11-22T12:03:23;56.90;;;23.50;;
77012;SDS011;67260;53.130;17.982;2023-11-22T12:06:16;70.00;;;28.80;;
77012;SDS011;67260;53.130;17.982;2023-11-22T12:08:52;30.40;;;14.10;;
77012;SDS011;67260;53.130;17.982;2023-11-22T12:15:52;55.00;;;24.30;;
77012;SDS011;67260;53.130;17.982;2023-11-22T12:18:25;31.70;;;15.10;;
77012;SDS011;67260;53.130;17.982;2023-11-22T12:21:13;31.90;;;15.40;;
77012;SDS011;67260;53.130;17.982;2023-11-22T12:24:19;28.70;;;14.40;;
77012;SDS011;67260;53.130;17.982;2023-11-22T12:29:44;33.60;;;14.30;;
77012;SDS011;67260;53.130;17.982;2023-11-22T12:35:49;25.00;;;11.90;;
77012;SDS011;67260;53.130;17.982;2023-11-22T12:38:16;23.30;;;11.50;;
77012;SDS011;67260;53.130;17.982;2023-11-22T12:40:56;23.20;;;9.70;;
77012;SDS011;67260;53.130;17.982;2023-11-22T12:47:52;28.70;;;13.50;;
77012;SDS011;67260;53.130;17.982;2023-11-22T12:53:26;19.60;;;9.40;;
77012;SDS011;67260;53.130;17.982;2023-11-22T12:55:57;21.00;;;10.60;;
77012;SDS011;67260;53.130;17.982;2023-11-22T13:00:52;24.30;;;10.10;;
77012;SDS011;67260;53.130;17.982;2023-11-22T13:03:28;21.40;;;10.00;;
77012;SDS011;67260;53.130;17.982;2023-11-22T13:05:56;22.80;;;11.70;;
77012;SDS011;67260;53.130;17.982;2023-11-22T13:08:24;19.80;;;10.20;;
77012;SDS011;67260;53.130;17.982;2023-11-22T13:10:56;23.70;;;10.30;;
77012;SDS011;67260;53.130;17.982;2023-11-22T13:13:27;23.90;;;11.10;;
77012;SDS011;67260;53.130;17.982;2023-11-22T13:15:56;28.00;;;11.10;;
77012;SDS011;67260;53.130;17.982;2023-11-22T13:18:23;24.60;;;10.40;;
77012;SDS011;67260;53.130;17.982;2023-11-22T13:20:51;26.20;;;11.10;;
77012;SDS011;67260;53.130;17.982;2023-11-22T13:23:18;22.80;;;11.00;;
77012;SDS011;67260;53.130;17.982;2023-11-22T13:28:12;23.50;;;10.40;;
77012;SDS011;67260;53.130;17.982;2023-11-22T13:30:40;24.70;;;10.80;;
77012;SDS011;67260;53.130;17.982;2023-11-22T13:41:00;24.20;;;11.40;;
77012;SDS011;67260;53.130;17.982;2023-11-22T13:43:47;22.70;;;11.20;;
77012;SDS011;67260;53.130;17.982;2023-11-22T13:46:54;28.60;;;13.00;;
77012;SDS011;67260;53.130;17.982;2023-11-22T13:49:47;42.00;;;18.90;;
77012;SDS011;67260;53.130;17.982;2023-11-22T13:52:41;38.00;;;17.80;;
77012;SDS011;67260;53.130;17.982;2023-11-22T14:15:15;34.10;;;14.20;;
77012;SDS011;67260;53.130;17.982;2023-11-22T14:17:52;35.00;;;14.30;;
77012;SDS011;67260;53.130;17.982;2023-11-22T14:20:33;36.00;;;16.80;;
77012;SDS011;67260;53.130;17.982;2023-11-22T14:26:51;33.60;;;14.50;;
77012;SDS011;67260;53.130;17.982;2023-11-22T14:31:48;35.40;;;16.50;;
77012;SDS011;67260;53.130;17.982;2023-11-22T14:34:23;34.40;;;15.40;;
77012;SDS011;67260;53.130;17.982;2023-11-22T14:37:21;35.20;;;14.70;;
77012;SDS011;67260;53.130;17.982;2023-11-22T14:43:17;56.20;;;21.10;;
77012;SDS011;67260;53.130;17.982;2023-11-22T14:45:43;44.90;;;18.80;;
77012;SDS011;67260;53.130;17.982;2023-11-22T14:48:16;39.80;;;17.00;;
77012;SDS011;67260;53.130;17.982;2023-11-22T14:50:49;36.90;;;15.80;;
77012;SDS011;67260;53.130;17.982;2023-11-22T14:53:30;30.00;;;13.90;;
77012;SDS011;67260;53.130;17.982;2023-11-22T14:55:58;34.00;;;15.30;;
77012;SDS011;67260;53.130;17.982;2023-11-22T14:58:29;35.70;;;16.50;;
77012;SDS011;67260;53.130;17.982;2023-11-22T15:01:10;31.40;;;14.30;;
77012;SDS011;67260;53.130;17.982;2023-11-22T15:06:58;30.10;;;12.90;;
77012;SDS011;67260;53.130;17.982;2023-11-22T15:12:45;40.90;;;17.30;;
77012;SDS011;67260;53.130;17.982;2023-11-22T15:31:20;66.50;;;34.20;;
77012;SDS011;67260;53.130;17.982;2023-11-22T15:33:54;48.30;;;21.80;;
77012;SDS011;67260;53.130;17.982;2023-11-22T15:39:49;53.70;;;20.00;;
77012;SDS011;67260;53.130;17.982;2023-11-22T15:59:06;50.90;;;21.50;;
77012;SDS011;67260;53.130;17.982;2023-11-22T16:08:33;59.30;;;23.10;;
77012;SDS011;67260;53.130;17.982;2023-11-22T16:11:09;57.60;;;21.70;;
77012;SDS011;67260;53.130;17.982;2023-11-22T16:13:41;56.70;;;22.90;;
77012;SDS011;67260;53.130;17.982;2023-11-22T16:16:10;72.30;;;27.00;;
77012;SDS011;67260;53.130;17.982;2023-11-22T16:21:34;54.50;;;19.70;;
77012;SDS011;67260;53.130;17.982;2023-11-22T16:43:09;45.60;;;18.10;;
77012;SDS011;67260;53.130;17.982;2023-11-22T16:59:44;29.60;;;12.80;;
77012;SDS011;67260;53.130;17.982;2023-11-22T17:02:11;32.70;;;14.10;;
77012;SDS011;67260;53.130;17.982;2023-11-22T17:04:48;40.00;;;17.20;;
77012;SDS011;67260;53.130;17.982;2023-11-22T17:15:01;37.50;;;16.50;;
77012;SDS011;67260;53.130;17.982;2023-11-22T17:17:38;37.30;;;14.40;;
77012;SDS011;67260;53.130;17.982;2023-11-22T17:21:19;36.40;;;16.10;;
77012;SDS011;67260;53.130;17.982;2023-11-22T17:35:35;35.60;;;15.40;;
77012;SDS011;67260;53.130;17.982;2023-11-22T17:55:04;32.60;;;11.90;;
77012;SDS011;67260;53.130;17.982;2023-11-22T17:57:34;41.00;;;21.00;;
77012;SDS011;67260;53.130;17.982;2023-11-22T18:00:13;44.00;;;17.40;;
77012;SDS011;67260;53.130;17.982;2023-11-22T18:09:03;67.70;;;32.60;;
77012;SDS011;67260;53.130;17.982;2023-11-22T18:15:23;42.90;;;18.20;;
77012;SDS011;67260;53.130;17.982;2023-11-22T18:21:47;30.00;;;11.80;;
77012;SDS011;67260;53.130;17.982;2023-11-22T18:24:14;31.90;;;12.00;;
77012;SDS011;67260;53.130;17.982;2023-11-22T18:26:59;28.00;;;11.00;;
77012;SDS011;67260;53.130;17.982;2023-11-22T18:29:26;27.90;;;11.50;;
77012;SDS011;67260;53.130;17.982;2023-11-22T18:35:29;42.70;;;19.70;;
77012;SDS011;67260;53.130;17.982;2023-11-22T18:58:02;33.70;;;14.90;;
77012;SDS011;67260;53.130;17.982;2023-11-22T19:01:05;31.50;;;13.80;;
77012;SDS011;67260;53.130;17.982;2023-11-22T19:13:15;54.80;;;28.50;;
77012;SDS011;67260;53.130;17.982;2023-11-22T19:15:45;45.80;;;24.10;;
77012;SDS011;67260;53.130;17.982;2023-11-22T19:18:13;29.20;;;13.90;;
77012;SDS011;67260;53.130;17.982;2023-11-22T19:20:40;28.80;;;12.10;;
77012;SDS011;67260;53.130;17.982;2023-11-22T19:23:27;29.80;;;12.10;;
77012;SDS011;67260;53.130;17.982;2023-11-22T19:25:53;34.40;;;12.70;;
77012;SDS011;67260;53.130;17.982;2023-11-22T19:28:34;25.00;;;11.40;;
77012;SDS011;67260;53.130;17.982;2023-11-22T19:31:29;25.70;;;10.90;;
77012;SDS011;67260;53.130;17.982;2023-11-22T19:36:32;23.60;;;9.80;;
77012;SDS011;67260;53.130;17.982;2023-11-22T19:41:58;24.20;;;10.70;;
77012;SDS011;67260;53.130;17.982;2023-11-22T19:46:55;27.00;;;10.90;;
77012;SDS011;67260;53.130;17.982;2023-11-22T19:49:28;25.90;;;11.90;;
77012;SDS011;67260;53.130;17.982;2023-11-22T19:51:57;26.50;;;10.90;;
77012;SDS011;67260;53.130;17.982;2023-11-22T19:54:31;26.10;;;10.40;;
77012;SDS011;67260;53.130;17.982;2023-11-22T19:57:23;26.50;;;11.20;;
77012;SDS011;67260;53.130;17.982;2023-11-22T19:59:59;28.10;;;11.50;;
77012;SDS011;67260;53.130;17.982;2023-11-22T20:02:26;26.90;;;10.60;;
77012;SDS011;67260;53.130;17.982;2023-11-22T20:04:56;29.20;;;12.00;;
77012;SDS011;67260;53.130;17.982;2023-11-22T20:07:29;29.70;;;11.60;;
77012;SDS011;67260;53.130;17.982;2023-11-22T20:10:10;28.60;;;12.70;;
77012;SDS011;67260;53.130;17.982;2023-11-22T20:12:44;32.20;;;12.50;;
77012;SDS011;67260;53.130;17.982;2023-11-22T20:15:12;28.90;;;12.50;;
77012;SDS011;67260;53.130;17.982;2023-11-22T20:17:39;28.20;;;12.00;;
77012;SDS011;67260;53.130;17.982;2023-11-22T20:20:10;25.30;;;12.00;;
77012;SDS011;67260;53.130;17.982;2023-11-22T20:22:40;26.20;;;12.00;;
77012;SDS011;67260;53.130;17.982;2023-11-22T20:25:10;27.80;;;12.70;;
77012;SDS011;67260;53.130;17.982;2023-11-22T20:27:38;35.00;;;13.20;;
77012;SDS011;67260;53.130;17.982;2023-11-22T20:30:08;27.00;;;12.30;;
77012;SDS011;67260;53.130;17.982;2023-11-22T20:32:35;34.50;;;13.30;;
77012;SDS011;67260;53.130;17.982;2023-11-22T21:30:47;25.10;;;9.80;;
77012;SDS011;67260;53.130;17.982;2023-11-22T21:33:27;20.50;;;9.80;;
77012;SDS011;67260;53.130;17.982;2023-11-22T21:35:57;23.70;;;10.20;;
77012;SDS011;67260;53.130;17.982;2023-11-22T21:38:27;22.70;;;10.00;;
77012;SDS011;67260;53.130;17.982;2023-11-22T21:41:31;20.80;;;8.70;;
77012;SDS011;67260;53.130;17.982;2023-11-22T21:44:04;21.00;;;8.50;;
77012;SDS011;67260;53.130;17.982;2023-11-22T21:49:48;22.20;;;9.50;;
77012;SDS011;67260;53.130;17.982;2023-11-22T21:52:29;21.60;;;8.40;;
77012;SDS011;67260;53.130;17.982;2023-11-22T21:55:43;20.10;;;8.30;;
77012;SDS011;67260;53.130;17.982;2023-11-22T22:01:46;21.70;;;8.90;;